Time;durP1;ratioP1;P1;durP2;ratioP2;P2;SDS_P1;SDS_P2;PMS_P1;PMS_P2;Temp;Humidity;BMP_temperature;BMP_pressure;BME280_temperature;BME280_humidity;BME280_pressure;Samples;Min_cycle;Max_cycle;Signal;HPM_P1;HPM_P2
2022/04/05 00:01:43;;;;;;;12.27;9.17;;;8.30;99.90;;;;;;5033896;28;20033;-69
2022/04/05 00:04:10;;;;;;;13.03;9.60;;;8.30;99.90;;;;;;5034106;28;20512;-69
2022/04/05 00:06:36;;;;;;;12.33;9.30;;;8.30;99.90;;;;;;5033821;28;20413;-69
2022/04/05 00:09:02;;;;;;;15.07;10.27;;;8.20;99.90;;;;;;5033858;28;20025;-69
2022/04/05 00:11:28;;;;;;;13.77;9.67;;;8.30;99.90;;;;;;5033847;28;20053;-69
2022/04/05 00:13:54;;;;;;;12.47;8.57;;;8.30;99.90;;;;;;5034367;28;20037;-69
2022/04/05 00:16:20;;;;;;;12.13;8.90;;;8.30;99.90;;;;;;5034289;28;20057;-69
2022/04/05 00:18:46;;;;;;;13.67;9.57;;;8.40;99.90;;;;;;5033811;28;20133;-69
2022/04/05 00:21:12;;;;;;;12.10;8.67;;;8.30;99.90;;;;;;5032664;28;20034;-69
2022/04/05 00:23:38;;;;;;;12.37;9.10;;;8.40;99.90;;;;;;5033873;28;20036;-68
2022/04/05 00:26:03;;;;;;;14.07;9.47;;;8.40;99.90;;;;;;5033705;28;20071;-69
2022/04/05 00:28:30;;;;;;;12.27;8.60;;;8.40;99.90;;;;;;5033647;28;20072;-70
2022/04/05 00:30:59;;;;;;;12.13;8.93;;;8.40;99.90;;;;;;5033928;28;20036;-69
2022/04/05 00:33:25;;;;;;;12.40;8.32;;;8.40;99.90;;;;;;5033846;28;20259;-68
2022/04/05 00:35:51;;;;;;;10.77;8.27;;;8.40;99.90;;;;;;5033612;28;20149;-69
2022/04/05 00:38:18;;;;;;;12.03;9.03;;;8.40;99.90;;;;;;5033128;28;20025;-69
2022/04/05 00:40:44;;;;;;;11.43;8.10;;;8.40;99.90;;;;;;5033467;28;20037;-69
2022/04/05 00:43:10;;;;;;;10.73;7.77;;;8.40;99.90;;;;;;5033550;28;20022;-69
2022/04/05 00:45:36;;;;;;;11.10;7.90;;;8.30;99.90;;;;;;5032312;28;20052;-69
2022/04/05 00:48:04;;;;;;;11.27;7.97;;;8.30;99.90;;;;;;5033296;28;20033;-69
2022/04/05 00:50:36;;;;;;;11.87;8.50;;;8.40;99.90;;;;;;5033498;28;20367;-69
2022/04/05 00:53:05;;;;;;;14.13;9.30;;;8.30;99.90;;;;;;5033177;28;20074;-69
2022/04/05 00:55:32;;;;;;;10.95;7.68;;;8.40;99.90;;;;;;5033006;28;20029;-69
2022/04/05 00:58:01;;;;;;;12.13;8.80;;;8.40;99.90;;;;;;5031756;28;20021;-69
2022/04/05 01:00:27;;;;;;;13.43;9.65;;;8.40;99.90;;;;;;5033061;28;20029;-69
2022/04/05 01:02:54;;;;;;;12.87;9.07;;;8.40;99.90;;;;;;5032807;28;20386;-69
2022/04/05 01:05:23;;;;;;;14.50;9.83;;;8.40;99.90;;;;;;5033229;28;20478;-69
2022/04/05 01:07:50;;;;;;;13.65;9.20;;;8.50;99.90;;;;;;5033127;28;20371;-69
2022/04/05 01:10:16;;;;;;;13.97;10.17;;;8.50;99.90;;;;;;5031607;28;20060;-69
2022/04/05 01:12:42;;;;;;;12.77;9.37;;;8.50;99.90;;;;;;5032583;28;20142;-70
2022/04/05 01:15:08;;;;;;;13.87;9.90;;;8.50;99.90;;;;;;5032527;28;20482;-69
2022/04/05 01:17:35;;;;;;;13.27;9.03;;;8.50;99.90;;;;;;5032487;28;20041;-69
2022/04/05 01:20:02;;;;;;;13.80;9.40;;;8.50;99.90;;;;;;5032455;28;20026;-70
2022/04/05 01:22:28;;;;;;;11.83;8.47;;;8.60;99.90;;;;;;5031302;28;20124;-69
2022/04/05 01:24:54;;;;;;;11.30;8.30;;;8.60;99.90;;;;;;5032384;28;20164;-69
2022/04/05 01:27:20;;;;;;;11.00;8.33;;;8.60;99.90;;;;;;5032302;28;20025;-70
2022/04/05 01:29:47;;;;;;;11.40;8.60;;;8.60;99.90;;;;;;5032716;28;20488;-69
2022/04/05 01:32:14;;;;;;;12.13;8.37;;;8.60;99.90;;;;;;5032229;28;20536;-69
2022/04/05 01:34:40;;;;;;;11.23;8.20;;;8.60;99.90;;;;;;5032254;28;20116;-69
2022/04/05 01:37:10;;;;;;;14.00;9.40;;;8.60;99.90;;;;;;5032078;28;20655;-69
2022/04/05 01:39:37;;;;;;;13.50;9.27;;;8.60;99.90;;;;;;5032120;28;20116;-69
2022/04/05 01:42:07;;;;;;;15.53;10.37;;;8.60;99.90;;;;;;5032050;28;20040;-69
2022/04/05 01:44:36;;;;;;;16.88;11.07;;;8.70;99.90;;;;;;5032181;28;20159;-69
2022/04/05 01:47:23;;;;;;;17.02;11.77;;;8.70;99.90;;;;;;5031934;28;20096;-69
2022/04/05 01:49:49;;;;;;;18.80;12.50;;;8.70;99.90;;;;;;5031785;28;20512;-69
2022/04/05 01:52:15;;;;;;;23.30;13.93;;;8.70;99.90;;;;;;5031964;28;20065;-69
2022/04/05 01:54:41;;;;;;;22.03;13.70;;;8.70;99.90;;;;;;5031910;28;20033;-69
2022/04/05 01:57:08;;;;;;;21.83;14.53;;;8.60;99.90;;;;;;5031731;28;20030;-69
2022/04/05 01:59:38;;;;;;;22.73;15.30;;;8.70;99.90;;;;;;5031882;28;20555;-69
2022/04/05 02:02:06;;;;;;;24.43;15.40;;;8.70;99.90;;;;;;5031672;28;20516;-69
2022/04/05 02:04:32;;;;;;;26.93;16.57;;;8.70;99.90;;;;;;5031710;28;20419;-69
2022/04/05 02:06:58;;;;;;;25.43;16.47;;;8.80;99.90;;;;;;5031222;28;20057;-69
2022/04/05 02:09:25;;;;;;;29.50;17.33;;;8.80;99.90;;;;;;5030605;28;20037;-69
2022/04/05 02:11:53;;;;;;;25.77;17.10;;;8.80;99.90;;;;;;5031549;28;20033;-69
2022/04/05 02:14:42;;;;;;;26.17;17.27;;;8.90;99.90;;;;;;5003020;28;20448;-69
2022/04/05 02:17:14;;;;;;;28.83;17.70;;;8.80;99.90;;;;;;5030159;28;20562;-69
2022/04/05 02:19:43;;;;;;;28.17;18.45;;;8.90;99.90;;;;;;5030400;28;20033;-69
2022/04/05 02:22:13;;;;;;;28.43;17.97;;;8.90;99.90;;;;;;5030119;28;20037;-70
2022/04/05 02:24:40;;;;;;;27.53;18.80;;;9.00;99.90;;;;;;5030180;28;20444;-69
2022/04/05 02:27:07;;;;;;;30.17;18.03;;;9.10;99.90;;;;;;5030106;28;20021;-69
2022/04/05 02:29:36;;;;;;;35.00;19.30;;;9.10;99.90;;;;;;5030089;28;20075;-69
2022/04/05 02:32:09;;;;;;;35.20;19.93;;;9.20;99.90;;;;;;5029884;28;20026;-71
2022/04/05 02:34:37;;;;;;;34.53;19.17;;;9.20;99.90;;;;;;5029906;28;20072;-69
2022/04/05 02:37:04;;;;;;;33.43;19.23;;;9.20;99.90;;;;;;5029554;28;20120;-69
2022/04/05 02:39:31;;;;;;;31.83;19.43;;;9.10;99.90;;;;;;5029936;28;20063;-68
2022/04/05 02:42:02;;;;;;;26.90;16.70;;;9.00;99.90;;;;;;5029677;28;20083;-69
2022/04/05 02:44:29;;;;;;;19.30;11.63;;;8.90;99.90;;;;;;5031211;28;20033;-68
2022/04/05 02:47:02;;;;;;;13.37;7.57;;;8.80;99.90;;;;;;5029604;28;20117;-68
2022/04/05 02:49:31;;;;;;;11.33;6.73;;;8.70;99.90;;;;;;5030917;28;20040;-69
2022/04/05 02:51:59;;;;;;;13.03;6.83;;;8.60;99.90;;;;;;5013410;28;20402;-69
2022/04/05 02:54:33;;;;;;;11.40;6.67;;;8.50;99.90;;;;;;5029824;28;20021;-69
2022/04/05 02:57:03;;;;;;;10.53;6.27;;;8.50;99.90;;;;;;5029442;28;20030;-69
2022/04/05 02:59:30;;;;;;;10.63;6.47;;;8.40;99.90;;;;;;5029668;28;20399;-69
2022/04/05 03:01:57;;;;;;;11.27;6.07;;;8.30;99.90;;;;;;5029263;28;20044;-69
2022/04/05 03:04:23;;;;;;;13.53;7.47;;;8.30;99.90;;;;;;5030867;28;20025;-69
2022/04/05 03:06:51;;;;;;;11.57;6.57;;;8.30;99.90;;;;;;5029205;28;20040;-69
2022/04/05 03:09:17;;;;;;;12.80;7.03;;;8.30;99.90;;;;;;5029443;28;20029;-69
2022/04/05 03:11:43;;;;;;;13.13;7.90;;;8.30;99.90;;;;;;5029572;28;20409;-69
2022/04/05 03:14:12;;;;;;;15.27;8.77;;;8.20;99.90;;;;;;5029504;28;20398;-69
2022/04/05 03:16:39;;;;;;;16.63;8.50;;;8.20;99.90;;;;;;5030874;28;20534;-69
2022/04/05 03:19:12;;;;;;;14.70;8.13;;;8.20;99.90;;;;;;5034697;28;20573;-69
2022/04/05 03:21:38;;;;;;;14.73;8.30;;;8.20;99.90;;;;;;5034548;28;20120;-69
2022/04/05 03:24:04;;;;;;;14.87;8.30;;;8.20;99.90;;;;;;5034822;28;20029;-69
2022/04/05 03:26:30;;;;;;;14.97;8.07;;;8.20;99.90;;;;;;5034561;28;20100;-68
2022/04/05 03:28:58;;;;;;;19.07;9.50;;;8.20;99.90;;;;;;5033561;28;20031;-70
2022/04/05 03:31:25;;;;;;;18.67;8.67;;;8.10;99.90;;;;;;5033130;28;20025;-69
2022/04/05 03:33:53;;;;;;;14.30;8.07;;;8.10;99.90;;;;;;5017057;28;20033;-70
2022/04/05 03:36:19;;;;;;;15.77;8.90;;;8.10;99.90;;;;;;5033067;28;20029;-69
2022/04/05 03:38:46;;;;;;;19.30;9.13;;;8.10;99.90;;;;;;5033013;28;20033;-70
2022/04/05 03:41:14;;;;;;;16.73;9.03;;;8.10;99.90;;;;;;5033078;28;20040;-71
2022/04/05 03:43:42;;;;;;;17.10;8.90;;;8.10;99.90;;;;;;5034278;28;20071;-69
2022/04/05 03:46:11;;;;;;;17.13;8.80;;;8.10;99.90;;;;;;5033020;28;20097;-75
2022/04/05 03:48:37;;;;;;;20.03;10.03;;;8.10;99.90;;;;;;5032897;28;20116;-71
2022/04/05 03:51:09;;;;;;;21.95;10.95;;;8.10;99.90;;;;;;5034677;28;20292;-72
2022/04/05 03:53:37;;;;;;;19.80;9.87;;;8.10;99.90;;;;;;5017365;28;20041;-76
2022/04/05 03:56:09;;;;;;;23.80;10.90;;;8.10;99.90;;;;;;5033408;28;20036;-71
2022/04/05 03:58:35;;;;;;;26.83;11.90;;;8.10;99.90;;;;;;5032761;28;20076;-70
2022/04/05 04:01:02;;;;;;;27.77;12.13;;;8.10;99.90;;;;;;5033025;28;20037;-70
2022/04/05 04:03:31;;;;;;;26.02;11.95;;;8.10;99.90;;;;;;5032898;28;20025;-72
2022/04/05 04:05:59;;;;;;;25.70;12.30;;;8.10;99.90;;;;;;5032785;28;20537;-72
2022/04/05 04:08:26;;;;;;;28.37;13.80;;;8.10;99.90;;;;;;5032460;28;20080;-72
2022/04/05 04:10:53;;;;;;;29.73;12.70;;;8.20;99.90;;;;;;5033900;28;20025;-71
2022/04/05 04:13:23;;;;;;;24.87;12.27;;;8.20;99.90;;;;;;5032450;28;20369;-71
2022/04/05 04:15:51;;;;;;;30.00;12.37;;;8.20;99.90;;;;;;5032449;28;20124;-71
2022/04/05 04:18:18;;;;;;;27.40;12.17;;;8.20;99.90;;;;;;5032324;28;20486;-70
2022/04/05 04:20:48;;;;;;;24.67;12.48;;;8.10;99.90;;;;;;5016328;28;20022;-70
2022/04/05 04:23:17;;;;;;;21.67;11.98;;;8.10;99.90;;;;;;5032296;28;20029;-70
2022/04/05 04:25:46;;;;;;;25.77;12.73;;;8.10;99.90;;;;;;5032383;28;20028;-70
2022/04/05 04:28:20;;;;;;;27.70;13.30;;;8.20;99.90;;;;;;5032269;28;20053;-72
2022/04/05 04:30:46;;;;;;;26.20;12.97;;;8.10;99.90;;;;;;5031650;28;20033;-70
2022/04/05 04:33:13;;;;;;;31.37;14.10;;;8.10;99.90;;;;;;5034826;28;20022;-70
2022/04/05 04:35:42;;;;;;;26.57;14.13;;;8.20;99.90;;;;;;5033462;28;20022;-72
2022/04/05 04:38:08;;;;;;;27.95;13.65;;;8.10;99.90;;;;;;5031905;28;20040;-71
2022/04/05 04:40:47;;;;;;;25.97;13.50;;;8.10;99.90;;;;;;5033482;28;20053;-72
2022/04/05 04:43:23;;;;;;;22.90;12.38;;;8.10;99.90;;;;;;5032103;28;20033;-71
2022/04/05 04:45:58;;;;;;;29.93;15.93;;;8.20;99.90;;;;;;5032119;28;20385;-71
2022/04/05 04:48:24;;;;;;;26.57;13.93;;;8.20;99.90;;;;;;5033103;28;20053;-71
2022/04/05 04:50:50;;;;;;;22.57;12.23;;;8.20;99.90;;;;;;5033232;28;20029;-71
2022/04/05 04:53:19;;;;;;;21.27;10.77;;;8.20;99.90;;;;;;5032149;28;20021;-71
2022/04/05 04:56:01;;;;;;;21.65;11.32;;;8.20;99.90;;;;;;5033267;28;20060;-72
2022/04/05 04:58:27;;;;;;;20.83;11.07;;;8.20;99.90;;;;;;5031548;28;20601;-71
2022/04/05 05:00:53;;;;;;;23.27;12.20;;;8.20;99.90;;;;;;5033232;28;20100;-71
2022/04/05 05:03:19;;;;;;;20.93;11.47;;;8.20;99.90;;;;;;5033242;28;20033;-71
2022/04/05 05:05:45;;;;;;;19.83;12.07;;;8.20;99.90;;;;;;5032627;28;20032;-72
2022/04/05 05:08:11;;;;;;;23.67;12.07;;;8.20;99.90;;;;;;5032347;28;20047;-71
2022/04/05 05:10:37;;;;;;;23.80;13.10;;;8.20;99.90;;;;;;5032516;28;20104;-72
2022/04/05 05:13:03;;;;;;;23.67;13.00;;;8.30;99.90;;;;;;5032114;28;20030;-71
2022/04/05 05:15:29;;;;;;;25.63;13.47;;;8.20;99.90;;;;;;5032016;28;20033;-71
2022/04/05 05:17:55;;;;;;;24.87;13.37;;;8.20;99.90;;;;;;5032083;28;20117;-71
2022/04/05 05:20:22;;;;;;;24.83;14.20;;;8.20;99.90;;;;;;5032121;28;20083;-71
2022/04/05 05:22:48;;;;;;;26.83;14.90;;;8.20;99.90;;;;;;5032116;28;20688;-72
2022/04/05 05:25:14;;;;;;;25.60;13.93;;;8.30;99.90;;;;;;5032478;28;20112;-71
2022/04/05 05:27:40;;;;;;;27.17;14.47;;;8.20;99.90;;;;;;5032416;28;20077;-72
2022/04/05 05:30:08;;;;;;;23.70;13.77;;;8.20;99.90;;;;;;5032442;28;20026;-71
2022/04/05 05:32:42;;;;;;;25.37;13.57;;;8.30;99.90;;;;;;5032550;28;20033;-72
2022/04/05 05:35:08;;;;;;;24.50;13.47;;;8.20;99.90;;;;;;5032170;28;20045;-71
2022/04/05 05:37:34;;;;;;;24.17;13.30;;;8.30;99.90;;;;;;5032402;28;20036;-71
2022/04/05 05:40:00;;;;;;;23.90;13.90;;;8.30;99.90;;;;;;5032177;28;20029;-71
2022/04/05 05:42:26;;;;;;;23.90;13.87;;;8.30;99.90;;;;;;5031620;28;20085;-71
2022/04/05 05:44:52;;;;;;;25.37;14.20;;;8.30;99.90;;;;;;5032100;28;20029;-71
2022/04/05 05:47:18;;;;;;;22.03;12.70;;;8.30;99.90;;;;;;5032177;28;20498;-71
2022/04/05 05:49:44;;;;;;;22.83;12.47;;;8.40;99.90;;;;;;5032251;28;20509;-71
2022/04/05 05:52:10;;;;;;;22.33;12.27;;;8.40;99.90;;;;;;5032011;28;20033;-72
2022/04/05 05:54:35;;;;;;;21.00;12.73;;;8.50;99.90;;;;;;5032044;28;20365;-71
2022/04/05 05:57:01;;;;;;;22.53;13.17;;;8.60;99.90;;;;;;5031828;28;20438;-71
2022/04/05 05:59:28;;;;;;;20.40;12.33;;;8.60;99.90;;;;;;5031849;28;20095;-72
2022/04/05 06:01:56;;;;;;;23.43;12.93;;;8.70;99.90;;;;;;5031806;28;20029;-71
2022/04/05 06:04:22;;;;;;;24.20;13.20;;;8.80;99.90;;;;;;5031767;28;20493;-71
2022/04/05 06:06:48;;;;;;;18.83;12.30;;;8.90;99.90;;;;;;5031535;28;20061;-71
2022/04/05 06:09:14;;;;;;;18.13;11.90;;;9.10;99.90;;;;;;5031811;28;20025;-71
2022/04/05 06:11:40;;;;;;;18.10;11.63;;;9.30;99.90;;;;;;5031445;28;20037;-71
2022/04/05 06:14:06;;;;;;;19.30;11.40;;;9.30;99.90;;;;;;5031810;28;20482;-71
2022/04/05 06:16:32;;;;;;;17.87;11.87;;;9.30;99.90;;;;;;5031415;28;20037;-71
2022/04/05 06:18:58;;;;;;;17.73;11.50;;;9.40;99.90;;;;;;5031560;28;20090;-71
2022/04/05 06:21:23;;;;;;;17.60;11.00;;;9.40;99.90;;;;;;5031750;28;20430;-71
2022/04/05 06:23:52;;;;;;;17.70;10.10;;;9.40;99.90;;;;;;5031435;28;20487;-71
2022/04/05 06:26:18;;;;;;;19.00;11.07;;;9.50;99.90;;;;;;5030127;28;20052;-71
2022/04/05 06:28:44;;;;;;;16.47;11.17;;;9.50;99.90;;;;;;5031168;28;20022;-71
2022/04/05 06:31:10;;;;;;;16.87;10.30;;;9.50;99.90;;;;;;5030156;28;20033;-72
2022/04/05 06:33:36;;;;;;;20.60;11.47;;;9.50;99.90;;;;;;5031200;28;20592;-71
2022/04/05 06:36:02;;;;;;;19.73;12.30;;;9.50;99.90;;;;;;5031050;28;20121;-72
2022/04/05 06:38:28;;;;;;;20.40;10.80;;;9.50;99.90;;;;;;5031215;28;20407;-72
2022/04/05 06:40:55;;;;;;;24.60;14.30;;;9.60;99.90;;;;;;5030589;28;20044;-71
2022/04/05 06:43:24;;;;;;;21.83;13.03;;;9.70;99.90;;;;;;5031204;28;20108;-71
2022/04/05 06:45:51;;;;;;;16.00;11.27;;;9.70;99.90;;;;;;5030948;28;20510;-71
2022/04/05 06:48:17;;;;;;;18.97;11.30;;;9.70;99.90;;;;;;5030833;28;20029;-71
2022/04/05 06:50:43;;;;;;;17.87;10.73;;;9.70;99.90;;;;;;5031198;28;20083;-71
2022/04/05 06:53:10;;;;;;;22.63;10.87;;;9.70;99.90;;;;;;5030400;28;20061;-71
2022/04/05 06:55:37;;;;;;;20.47;10.83;;;9.70;99.90;;;;;;5030838;28;20049;-71
2022/04/05 06:58:03;;;;;;;23.93;11.43;;;9.70;99.90;;;;;;5029643;28;20498;-71
2022/04/05 07:00:29;;;;;;;17.33;11.70;;;9.70;99.90;;;;;;5031013;28;20053;-71
2022/04/05 07:02:57;;;;;;;21.47;10.27;;;9.70;99.90;;;;;;5030810;28;20502;-71
2022/04/05 07:05:24;;;;;;;17.47;10.93;;;9.70;99.90;;;;;;5030996;28;20026;-72
2022/04/05 07:07:50;;;;;;;18.80;10.07;;;9.70;99.90;;;;;;5029121;28;20120;-70
2022/04/05 07:10:19;;;;;;;17.50;11.53;;;9.70;99.90;;;;;;5030805;28;20033;-71
2022/04/05 07:12:47;;;;;;;16.50;10.50;;;9.80;99.90;;;;;;5030325;28;20616;-72
2022/04/05 07:15:13;;;;;;;22.73;14.17;;;9.80;99.90;;;;;;5030561;28;20033;-72
2022/04/05 07:17:40;;;;;;;17.77;10.90;;;9.80;99.90;;;;;;5030469;28;20482;-72
2022/04/05 07:20:09;;;;;;;22.37;10.57;;;9.70;99.90;;;;;;5030657;28;20445;-72
2022/04/05 07:22:47;;;;;;;92.38;15.75;;;9.70;99.90;;;;;;5030455;28;20467;-72
2022/04/05 07:25:13;;;;;;;35.30;11.13;;;9.80;99.90;;;;;;5029404;28;20592;-72
2022/04/05 07:27:39;;;;;;;22.30;10.10;;;9.80;99.90;;;;;;5030692;28;20033;-73
2022/04/05 07:30:05;;;;;;;37.23;11.23;;;9.80;99.90;;;;;;5029454;28;20034;-72
2022/04/05 07:32:37;;;;;;;22.67;10.10;;;9.80;99.90;;;;;;5030411;28;20036;-71
2022/04/05 07:35:03;;;;;;;24.17;9.97;;;9.80;99.90;;;;;;5029631;28;20038;-73
2022/04/05 07:37:30;;;;;;;22.93;9.80;;;9.80;99.90;;;;;;5030362;28;20119;-72
2022/04/05 07:40:00;;;;;;;20.83;9.10;;;9.90;99.90;;;;;;5030531;28;20025;-72
2022/04/05 07:42:29;;;;;;;;;;;10.00;99.90;;;;;;5030855;28;20033;-70
2022/04/05 07:44:55;;;;;;;14.45;8.48;;;10.00;99.90;;;;;;5030558;28;19913;-72
2022/04/05 07:47:21;;;;;;;16.40;7.83;;;9.90;99.90;;;;;;5030254;28;20028;-71
2022/04/05 07:49:47;;;;;;;15.83;9.67;;;10.00;99.90;;;;;;5030316;28;20017;-72
2022/04/05 07:52:14;;;;;;;17.30;9.23;;;9.90;99.90;;;;;;5030424;28;20117;-72
2022/04/05 07:54:41;;;;;;;16.20;9.87;;;9.90;99.90;;;;;;5029492;28;20053;-72
2022/04/05 07:57:09;;;;;;;15.23;9.50;;;9.90;99.90;;;;;;5028846;28;20036;-72
2022/04/05 07:59:36;;;;;;;71.97;14.90;;;10.00;99.90;;;;;;5028666;28;20026;-72
2022/04/05 08:02:03;;;;;;;32.23;12.27;;;10.00;99.90;;;;;;5028750;28;20038;-72
2022/04/05 08:04:29;;;;;;;28.80;10.93;;;10.00;99.90;;;;;;5029732;28;20021;-72
2022/04/05 08:06:55;;;;;;;53.40;13.27;;;10.00;99.90;;;;;;5032408;28;20036;-72
2022/04/05 08:09:21;;;;;;;22.33;10.73;;;10.10;99.90;;;;;;5032761;28;20025;-72
2022/04/05 08:11:47;;;;;;;25.77;11.37;;;10.10;99.90;;;;;;5033791;28;20044;-72
2022/04/05 08:14:13;;;;;;;21.20;12.30;;;10.00;99.90;;;;;;5055547;22;20569;-80
2022/04/05 08:16:39;;;;;;;17.83;11.30;;;10.10;99.90;;;;;;5032130;28;20140;-81
2022/04/05 08:19:05;;;;;;;21.00;10.90;;;10.10;99.90;;;;;;5033571;28;20109;-81
2022/04/05 08:21:31;;;;;;;45.30;14.03;;;10.10;99.90;;;;;;5033121;28;20087;-81
2022/04/05 08:23:57;;;;;;;26.80;11.93;;;10.10;99.90;;;;;;5032325;28;20030;-81
2022/04/05 08:26:23;;;;;;;54.83;14.17;;;10.10;99.90;;;;;;5032066;28;20116;-80
2022/04/05 08:28:49;;;;;;;62.30;15.33;;;10.20;99.90;;;;;;5033274;28;20037;-81
2022/04/05 08:31:17;;;;;;;38.23;13.67;;;10.20;99.90;;;;;;5015585;28;20040;-81
2022/04/05 08:33:43;;;;;;;31.90;13.23;;;10.20;99.90;;;;;;5033196;28;20030;-81
2022/04/05 08:36:09;;;;;;;21.83;13.93;;;10.30;99.90;;;;;;5033277;28;20034;-81
2022/04/05 08:38:35;;;;;;;21.93;12.37;;;10.30;99.90;;;;;;5033130;28;20037;-81
2022/04/05 08:41:07;;;;;;;19.20;12.53;;;10.30;99.90;;;;;;5033378;28;20104;-80
2022/04/05 08:43:34;;;;;;;20.20;12.50;;;10.30;99.90;;;;;;5032998;28;20033;-81
2022/04/05 08:46:01;;;;;;;17.50;12.10;;;10.40;99.90;;;;;;5033191;28;20028;-80
2022/04/05 08:48:29;;;;;;;26.33;13.13;;;10.40;99.90;;;;;;5033418;28;20107;-81
2022/04/05 08:50:57;;;;;;;18.97;12.20;;;10.40;99.90;;;;;;5033139;28;20474;-81
2022/04/05 08:53:24;;;;;;;25.13;13.17;;;10.40;99.90;;;;;;5031590;28;20029;-81
2022/04/05 08:55:51;;;;;;;26.10;12.83;;;10.40;99.90;;;;;;5015317;28;20037;-80
2022/04/05 08:58:17;;;;;;;19.63;12.30;;;10.40;99.90;;;;;;5032651;28;20096;-81
2022/04/05 09:00:43;;;;;;;18.20;12.00;;;10.40;99.90;;;;;;5032822;28;20021;-80
2022/04/05 09:03:09;;;;;;;24.60;12.93;;;10.50;99.90;;;;;;5032579;28;20041;-81
2022/04/05 09:05:43;;;;;;;20.43;12.90;;;10.50;99.90;;;;;;5032800;28;20045;-80
2022/04/05 09:08:21;;;;;;;23.23;12.83;;;10.50;99.90;;;;;;5032663;28;20104;-81
2022/04/05 09:10:53;;;;;;;20.53;12.17;;;10.60;99.90;;;;;;5032676;28;20025;-81
2022/04/05 09:13:25;;;;;;;27.73;12.47;;;10.60;99.90;;;;;;5031092;28;20040;-81
2022/04/05 09:15:56;;;;;;;20.13;11.43;;;10.60;99.90;;;;;;5032560;28;20041;-81
2022/04/05 09:18:37;;;;;;;24.70;12.97;;;10.60;99.90;;;;;;5032422;28;20527;-80
2022/04/05 09:21:05;;;;;;;33.63;13.07;;;10.70;99.90;;;;;;5032408;28;20481;-80
2022/04/05 09:23:41;;;;;;;40.23;12.50;;;10.80;99.90;;;;;;5032509;28;20025;-81
2022/04/05 09:26:12;;;;;;;23.73;12.07;;;10.70;99.90;;;;;;5032385;28;20473;-81
2022/04/05 09:28:42;;;;;;;24.37;10.93;;;10.70;99.90;;;;;;5031045;28;20084;-81
2022/04/05 09:31:13;;;;;;;22.87;11.20;;;10.70;99.90;;;;;;5032856;28;20040;-81
2022/04/05 09:34:00;;;;;;;20.97;10.63;;;10.70;99.90;;;;;;5032034;28;20084;-81
2022/04/05 09:36:40;;;;;;;20.90;11.20;;;10.60;99.90;;;;;;5032419;28;20076;-81
2022/04/05 09:39:11;;;;;;;16.23;10.97;;;10.60;99.90;;;;;;5032457;28;20034;-81
2022/04/05 09:41:36;;;;;;;19.80;10.67;;;10.60;99.90;;;;;;5031983;28;20033;-81
2022/04/05 09:44:02;;;;;;;16.20;10.47;;;10.60;99.90;;;;;;5031932;28;20025;-81
2022/04/05 09:46:29;;;;;;;16.37;10.90;;;10.60;99.90;;;;;;5032072;28;20032;-81
2022/04/05 09:49:12;;;;;;;16.20;11.50;;;10.60;99.90;;;;;;5032008;28;20025;-81
2022/04/05 09:51:46;;;;;;;19.23;12.60;;;10.60;99.90;;;;;;5030716;28;20068;-81
2022/04/05 09:54:22;;;;;;;23.63;12.13;;;10.60;99.90;;;;;;5031798;28;20116;-81
2022/04/05 09:56:48;;;;;;;18.53;10.90;;;10.70;99.90;;;;;;5031543;28;20029;-81
2022/04/05 09:59:18;;;;;;;20.77;10.87;;;10.80;99.90;;;;;;5031774;28;20041;-81
2022/04/05 10:01:49;;;;;;;15.73;9.83;;;10.80;99.90;;;;;;5031399;28;20047;-81
2022/04/05 10:04:17;;;;;;;15.47;10.80;;;10.90;99.90;;;;;;5031751;28;20022;-81
2022/04/05 10:06:46;;;;;;;20.40;11.87;;;10.90;99.90;;;;;;5031494;28;20033;-81
2022/04/05 10:09:17;;;;;;;14.32;10.23;;;11.00;99.90;;;;;;5031495;28;20264;-81
2022/04/05 10:11:44;;;;;;;14.73;10.00;;;11.00;99.90;;;;;;5031671;28;20037;-81
2022/04/05 10:14:14;;;;;;;13.73;9.33;;;11.00;99.90;;;;;;5031424;28;20092;-81
2022/04/05 10:16:44;;;;;;;18.27;10.37;;;11.10;99.90;;;;;;5030205;28;20044;-81
2022/04/05 10:19:11;;;;;;;16.67;9.40;;;11.20;99.90;;;;;;5031377;28;20069;-81
2022/04/05 10:21:39;;;;;;;14.93;9.00;;;11.20;99.90;;;;;;5031094;28;20025;-81
2022/04/05 10:24:07;;;;;;;13.70;9.13;;;11.30;99.90;;;;;;5031347;28;20061;-81
2022/04/05 10:26:41;;;;;;;12.67;7.77;;;11.40;99.90;;;;;;5031034;28;20058;-81
2022/04/05 10:29:15;;;;;;;11.73;7.63;;;11.40;99.90;;;;;;5030008;28;20120;-80
2022/04/05 10:32:07;;;;;;;11.00;7.97;;;11.40;99.90;;;;;;5031201;28;20037;-81
2022/04/05 10:34:53;;;;;;;11.20;6.73;;;11.40;99.90;;;;;;5029910;28;20033;-81
2022/04/05 10:37:28;;;;;;;10.80;6.40;;;11.30;99.90;;;;;;5031098;28;20116;-81
2022/04/05 10:39:57;;;;;;;10.83;7.70;;;11.40;99.90;;;;;;5031151;28;20041;-81
2022/04/05 10:42:25;;;;;;;19.45;6.88;;;11.20;99.90;;;;;;5030584;28;20044;-81
2022/04/05 10:45:12;;;;;;;15.83;7.37;;;11.10;99.90;;;;;;5030958;28;20469;-81
2022/04/05 10:48:00;;;;;;;13.47;6.70;;;11.10;99.90;;;;;;5029627;28;20109;-81
2022/04/05 10:50:26;;;;;;;12.90;6.57;;;11.10;99.90;;;;;;5031071;28;20075;-81
2022/04/05 10:53:31;;;;;;;12.07;7.23;;;11.00;99.90;;;;;;5030596;28;20068;-81
2022/04/05 10:56:03;;;;;;;15.47;7.60;;;11.00;99.90;;;;;;5028397;28;20412;-81
2022/04/05 10:58:36;;;;;;;52.70;9.43;;;11.00;99.90;;;;;;5030695;28;20029;-81
2022/04/05 11:01:16;;;;;;;22.60;7.87;;;10.90;99.90;;;;;;5030644;28;20069;-81
2022/04/05 11:03:44;;;;;;;16.63;8.03;;;10.90;99.90;;;;;;5029171;28;20076;-81
2022/04/05 11:06:10;;;;;;;17.83;8.20;;;10.90;99.90;;;;;;5030977;28;20429;-81
2022/04/05 11:08:37;;;;;;;18.63;8.17;;;10.90;99.90;;;;;;5029297;28;20129;-81
2022/04/05 11:11:05;;;;;;;20.60;8.63;;;11.00;99.90;;;;;;5029807;28;20032;-81
2022/04/05 11:13:32;;;;;;;11.65;7.97;;;11.00;99.90;;;;;;5030328;28;20033;-81
2022/04/05 11:15:59;;;;;;;32.37;7.97;;;11.10;99.90;;;;;;5030594;28;20034;-81
2022/04/05 11:18:28;;;;;;;10.90;6.47;;;11.20;99.90;;;;;;5030512;28;20079;-81
2022/04/05 11:20:56;;;;;;;14.85;6.70;;;11.20;99.90;;;;;;5012977;28;20029;-80
2022/04/05 11:23:47;;;;;;;25.60;8.32;;;11.20;99.90;;;;;;5030243;28;20079;-81
2022/04/05 11:26:31;;;;;;;11.73;6.90;;;11.20;99.90;;;;;;5030476;28;20029;-81
2022/04/05 11:28:58;;;;;;;11.30;7.50;;;11.20;99.90;;;;;;5030517;28;20029;-80
2022/04/05 11:31:28;;;;;;;11.60;7.47;;;11.10;99.90;;;;;;5030735;28;20041;-81
2022/04/05 11:33:54;;;;;;;11.23;7.80;;;11.10;99.90;;;;;;5029213;28;20033;-82
2022/04/05 11:36:23;;;;;;;11.70;7.70;;;11.10;99.90;;;;;;5030415;28;20596;-81
2022/04/05 11:38:53;;;;;;;15.70;8.60;;;11.10;99.90;;;;;;5030635;28;20053;-81
2022/04/05 11:41:28;;;;;;;16.90;9.17;;;11.00;99.90;;;;;;5034317;28;20036;-81
2022/04/05 11:44:02;;;;;;;14.13;8.70;;;11.00;99.90;;;;;;5034247;28;20120;-81
2022/04/05 11:46:30;;;;;;;11.17;8.27;;;11.10;99.90;;;;;;5032612;28;20112;-81
2022/04/05 11:48:59;;;;;;;10.52;7.80;;;11.10;99.90;;;;;;5034676;28;20033;-81
2022/04/05 11:51:29;;;;;;;10.55;7.03;;;11.20;99.90;;;;;;5032770;28;20486;-81
2022/04/05 11:54:06;;;;;;;11.33;7.10;;;11.20;99.90;;;;;;5032769;28;20037;-81
2022/04/05 11:56:34;;;;;;;14.50;7.67;;;11.30;99.90;;;;;;5033849;28;20033;-81
2022/04/05 11:59:00;;;;;;;10.47;6.90;;;11.30;99.90;;;;;;5016387;28;20033;-81
2022/04/05 12:01:34;;;;;;;10.87;6.93;;;11.40;99.90;;;;;;5033760;28;20486;-81
2022/04/05 12:04:04;;;;;;;9.77;6.60;;;11.50;99.90;;;;;;5034059;28;20029;-81
2022/04/05 12:06:32;;;;;;;7.87;6.13;;;11.50;99.90;;;;;;5033920;28;20108;-81
2022/04/05 12:09:02;;;;;;;7.43;5.57;;;11.60;99.90;;;;;;5032621;28;20034;-80
2022/04/05 12:11:30;;;;;;;8.73;5.55;;;11.60;99.90;;;;;;5033838;28;20036;-81
2022/04/05 12:13:58;;;;;;;8.40;5.63;;;11.70;99.90;;;;;;5016083;28;20048;-81
2022/04/05 12:16:29;;;;;;;10.98;7.50;;;11.70;99.90;;;;;;5033671;28;20045;-81
2022/04/05 12:18:57;;;;;;;7.27;5.87;;;11.80;99.90;;;;;;5015859;28;20121;-81
2022/04/05 12:21:26;;;;;;;9.20;6.40;;;11.80;99.90;;;;;;5032358;28;20040;-81
2022/04/05 12:23:53;;;;;;;10.27;6.73;;;11.80;99.90;;;;;;5033742;28;20029;-81
2022/04/05 12:26:24;;;;;;;9.80;6.83;;;11.80;99.90;;;;;;5033878;28;20025;-81
2022/04/05 12:28:59;;;;;;;10.53;7.00;;;11.70;99.90;;;;;;5033798;28;20072;-81
2022/04/05 12:31:28;;;;;;;9.40;6.37;;;11.70;99.90;;;;;;5033485;28;20637;-81
2022/04/05 12:34:05;;;;;;;10.03;6.53;;;11.70;99.90;;;;;;5033635;28;20048;-81
2022/04/05 12:36:37;;;;;;;10.20;6.60;;;11.70;99.90;;;;;;5032319;28;20271;-81
2022/04/05 12:39:06;;;;;;;10.93;6.80;;;11.70;99.90;;;;;;5032050;28;20060;-81
2022/04/05 12:41:40;;;;;;;10.82;7.70;;;11.80;99.90;;;;;;5033506;28;20078;-81
2022/04/05 12:44:11;;;;;;;9.37;7.33;;;11.80;99.90;;;;;;5033369;28;20035;-81
2022/04/05 12:46:51;;;;;;;13.10;7.77;;;11.90;99.90;;;;;;5033591;28;20033;-81